createdAt,value
2023-01-30T00:01:37.066Z,100.00
2023-01-30T00:04:07.471Z,100.00
2023-01-30T00:06:37.353Z,100.00
2023-01-30T00:09:09.698Z,100.00
2023-01-30T00:11:36.992Z,100.00
2023-01-30T00:14:07.905Z,100.00
2023-01-30T00:16:38.410Z,100.00
2023-01-30T00:19:07.058Z,100.00
2023-01-30T00:21:37.148Z,100.00
2023-01-30T00:24:07.311Z,100.00
2023-01-30T00:26:37.189Z,100.00
2023-01-30T00:29:07.235Z,100.00
2023-01-30T00:31:37.182Z,100.00
2023-01-30T00:34:07.029Z,100.00
2023-01-30T00:36:37.031Z,100.00
2023-01-30T00:39:07.784Z,100.00
2023-01-30T00:41:46.882Z,100.00
2023-01-30T00:44:17.063Z,100.00
2023-01-30T00:46:46.901Z,100.00
2023-01-30T00:49:07.008Z,100.00
2023-01-30T00:54:07.561Z,100.00
2023-01-30T00:56:37.103Z,100.00
2023-01-30T00:59:07.125Z,100.00
2023-01-30T01:01:38.385Z,100.00
2023-01-30T01:04:09.649Z,100.00
2023-01-30T01:06:37.689Z,100.00
2023-01-30T01:09:08.004Z,100.00
2023-01-30T01:11:37.221Z,100.00
2023-01-30T01:14:07.268Z,100.00
2023-01-30T01:16:37.141Z,100.00
2023-01-30T01:19:07.406Z,100.00
2023-01-30T01:21:37.305Z,100.00
2023-01-30T01:24:12.396Z,100.00
2023-01-30T01:26:37.327Z,100.00
2023-01-30T01:31:37.502Z,100.00
2023-01-30T01:34:07.039Z,100.00
2023-01-30T01:39:07.117Z,100.00
2023-01-30T01:41:37.182Z,100.00
2023-01-30T01:44:08.661Z,100.00
2023-01-30T01:46:41.928Z,100.00
2023-01-30T01:49:13.855Z,100.00
2023-01-30T01:51:40.774Z,100.00
2023-01-30T01:54:10.874Z,100.00
2023-01-30T01:56:42.212Z,100.00
2023-01-30T01:59:12.829Z,100.00
2023-01-30T02:01:37.260Z,100.00
2023-01-30T02:04:11.064Z,100.00
2023-01-30T02:06:40.669Z,100.00
2023-01-30T02:09:09.780Z,100.00
2023-01-30T02:11:42.915Z,100.00
2023-01-30T02:14:07.811Z,100.00
2023-01-30T02:16:37.308Z,100.00
2023-01-30T02:19:23.133Z,100.00
2023-01-30T02:21:56.900Z,100.00
2023-01-30T02:24:25.838Z,100.00
2023-01-30T02:26:53.634Z,100.00
2023-01-30T02:29:23.193Z,100.00
2023-01-30T02:31:43.738Z,100.00
2023-01-30T02:34:25.181Z,100.00
2023-01-30T02:36:49.995Z,100.00
2023-01-30T02:39:13.876Z,100.00
2023-01-30T02:41:46.569Z,100.00
2023-01-30T02:44:16.765Z,100.00
2023-01-30T02:46:45.810Z,100.00
2023-01-30T02:49:10.600Z,100.00
2023-01-30T02:51:38.852Z,100.00
2023-01-30T02:54:09.849Z,100.00
2023-01-30T02:56:47.198Z,100.00
2023-01-30T02:59:07.170Z,100.00
2023-01-30T03:01:54.387Z,100.00
2023-01-30T03:04:30.956Z,100.00
2023-01-30T03:09:15.800Z,100.00
2023-01-30T03:11:46.019Z,100.00
2023-01-30T03:14:13.850Z,100.00
2023-01-30T03:16:38.808Z,100.00
2023-01-30T03:19:11.785Z,100.00
2023-01-30T03:21:39.969Z,100.00
2023-01-30T03:24:07.525Z,100.00
2023-01-30T03:26:44.029Z,100.00
2023-01-30T03:29:07.089Z,100.00
2023-01-30T03:34:07.318Z,100.00
2023-01-30T03:36:37.389Z,100.00
2023-01-30T03:39:07.588Z,100.00
2023-01-30T03:41:37.388Z,100.00
2023-01-30T03:44:07.183Z,100.00
2023-01-30T03:46:37.328Z,100.00
2023-01-30T03:49:07.411Z,100.00
2023-01-30T03:51:37.583Z,100.00
2023-01-30T03:54:07.034Z,100.00
2023-01-30T03:56:37.101Z,100.00
2023-01-30T03:59:07.237Z,100.00
2023-01-30T04:01:37.204Z,100.00
2023-01-30T04:04:07.057Z,100.00
2023-01-30T04:06:37.423Z,100.00
2023-01-30T04:09:07.143Z,100.00
2023-01-30T04:11:37.055Z,100.00
2023-01-30T04:14:07.358Z,100.00
2023-01-30T04:16:37.267Z,100.00
2023-01-30T04:19:07.412Z,100.00
2023-01-30T04:21:37.225Z,100.00
2023-01-30T04:24:07.415Z,100.00
2023-01-30T04:26:37.385Z,100.00
2023-01-30T04:29:07.363Z,100.00
2023-01-30T04:31:37.426Z,100.00
2023-01-30T04:34:07.072Z,100.00
2023-01-30T04:36:37.305Z,100.00
2023-01-30T04:41:37.388Z,100.00
2023-01-30T04:44:07.192Z,100.00
2023-01-30T04:46:37.089Z,100.00
2023-01-30T04:49:08.915Z,100.00
2023-01-30T04:51:37.360Z,100.00
2023-01-30T04:54:07.320Z,100.00
2023-01-30T04:56:37.502Z,100.00
2023-01-30T04:59:07.056Z,100.00
2023-01-30T05:01:38.116Z,100.00
2023-01-30T05:04:07.866Z,100.00
2023-01-30T05:06:37.250Z,100.00
2023-01-30T05:09:07.228Z,100.00
2023-01-30T05:11:37.515Z,100.00
2023-01-30T05:14:07.548Z,100.00
2023-01-30T05:16:37.103Z,100.00
2023-01-30T05:19:10.101Z,100.00
2023-01-30T05:21:37.068Z,100.00
2023-01-30T05:24:07.424Z,100.00
2023-01-30T05:26:37.608Z,100.00
2023-01-30T05:29:09.480Z,100.00
2023-01-30T05:31:37.772Z,100.00
2023-01-30T05:34:10.195Z,100.00
2023-01-30T05:36:37.103Z,100.00
2023-01-30T05:39:07.538Z,100.00
2023-01-30T05:41:37.077Z,100.00
2023-01-30T05:44:07.115Z,100.00
2023-01-30T05:46:37.368Z,100.00
2023-01-30T05:49:07.168Z,100.00
2023-01-30T05:56:37.607Z,100.00
2023-01-30T05:59:10.880Z,100.00
2023-01-30T06:01:37.120Z,100.00
2023-01-30T06:04:07.608Z,100.00
2023-01-30T06:11:37.320Z,100.00
2023-01-30T06:14:07.139Z,100.00
2023-01-30T06:16:37.167Z,100.00
2023-01-30T06:19:07.303Z,100.00
2023-01-30T06:21:37.099Z,100.00
2023-01-30T06:24:07.841Z,100.00
2023-01-30T06:26:37.189Z,100.00
2023-01-30T06:29:07.219Z,100.00
2023-01-30T06:31:37.447Z,100.00
2023-01-30T06:34:07.152Z,100.00
2023-01-30T06:39:07.233Z,100.00
2023-01-30T06:41:37.112Z,100.00
2023-01-30T06:44:08.301Z,100.00
2023-01-30T06:46:37.125Z,100.00
2023-01-30T06:49:07.565Z,100.00
2023-01-30T06:51:37.325Z,100.00
2023-01-30T06:54:07.201Z,100.00
2023-01-30T06:56:37.139Z,100.00
2023-01-30T06:59:07.230Z,100.00
2023-01-30T07:01:37.943Z,100.00
2023-01-30T07:04:07.376Z,100.00
2023-01-30T07:06:38.595Z,100.00
2023-01-30T07:09:07.236Z,100.00
2023-01-30T07:11:37.151Z,100.00
2023-01-30T07:14:08.506Z,100.00
2023-01-30T07:16:37.497Z,100.00
2023-01-30T07:19:07.616Z,99.84
2023-01-30T07:24:07.642Z,99.30
2023-01-30T07:26:37.459Z,99.79
2023-01-30T07:29:07.341Z,99.63
2023-01-30T07:31:37.324Z,99.77
2023-01-30T07:34:07.127Z,99.50
2023-01-30T07:36:37.189Z,100.00
2023-01-30T07:39:08.788Z,99.91
2023-01-30T07:41:37.321Z,99.86
2023-01-30T07:44:07.202Z,99.94
2023-01-30T07:46:37.300Z,100.00
2023-01-30T07:49:08.532Z,100.00
2023-01-30T07:51:37.155Z,100.00
2023-01-30T07:54:07.406Z,100.00
2023-01-30T07:56:37.139Z,100.00
2023-01-30T07:59:08.876Z,100.00
2023-01-30T08:01:37.656Z,99.80
2023-01-30T08:04:07.319Z,99.69
2023-01-30T08:06:38.157Z,99.90
2023-01-30T08:09:07.483Z,99.89
2023-01-30T08:11:37.187Z,99.83
2023-01-30T08:14:07.219Z,99.60
2023-01-30T08:16:38.057Z,99.80
2023-01-30T08:19:07.883Z,100.00
2023-01-30T08:21:37.283Z,100.00
2023-01-30T08:24:07.830Z,100.00
2023-01-30T08:29:07.297Z,99.32
2023-01-30T08:31:37.583Z,99.42
2023-01-30T08:36:37.428Z,99.08
2023-01-30T08:41:37.260Z,98.93
2023-01-30T08:44:07.514Z,98.54
2023-01-30T08:46:38.531Z,98.54
2023-01-30T08:49:07.233Z,98.88
2023-01-30T08:51:37.744Z,98.69
2023-01-30T08:54:08.384Z,98.48
2023-01-30T08:59:07.659Z,98.58
2023-01-30T09:01:37.450Z,98.47
2023-01-30T09:04:07.180Z,98.47
2023-01-30T09:06:37.569Z,98.48
2023-01-30T09:09:07.197Z,98.96
2023-01-30T09:11:37.404Z,98.32
2023-01-30T09:14:07.184Z,98.04
2023-01-30T09:19:07.552Z,98.70
2023-01-30T09:21:38.324Z,99.11
2023-01-30T09:24:07.395Z,98.27
2023-01-30T09:26:39.411Z,98.48
2023-01-30T09:29:07.359Z,98.34
2023-01-30T09:31:38.011Z,98.10
2023-01-30T09:34:07.526Z,97.88
2023-01-30T09:36:38.938Z,96.25
2023-01-30T09:39:09.101Z,96.57
2023-01-30T09:41:53.217Z,95.91
2023-01-30T09:44:30.358Z,95.65
2023-01-30T09:46:47.384Z,96.05
2023-01-30T09:49:20.746Z,95.39
2023-01-30T09:51:51.342Z,95.30
2023-01-30T09:54:17.018Z,96.27
2023-01-30T09:56:37.285Z,95.07
2023-01-30T09:59:20.668Z,95.18
2023-01-30T10:01:47.657Z,94.94
2023-01-30T10:04:15.429Z,94.42
2023-01-30T10:06:49.179Z,94.46
2023-01-30T10:09:14.517Z,94.51
2023-01-30T10:11:49.957Z,94.98
2023-01-30T10:14:25.584Z,94.96
2023-01-30T10:16:47.537Z,94.18
2023-01-30T10:19:29.907Z,94.74
2023-01-30T10:21:46.585Z,95.09
2023-01-30T10:24:24.418Z,94.23
2023-01-30T10:26:40.671Z,95.17
2023-01-30T10:29:14.896Z,94.08
2023-01-30T10:31:44.342Z,94.83
2023-01-30T10:34:13.613Z,93.11
2023-01-30T10:36:47.099Z,93.65
2023-01-30T10:39:20.490Z,93.36
2023-01-30T10:41:45.296Z,93.56
2023-01-30T10:44:10.404Z,93.01
2023-01-30T10:46:53.438Z,94.02
2023-01-30T10:49:14.760Z,92.72
2023-01-30T10:51:47.035Z,93.08
2023-01-30T10:54:12.776Z,92.84
2023-01-30T10:56:44.071Z,93.31
2023-01-30T10:59:21.320Z,94.19
2023-01-30T11:01:43.559Z,94.21
2023-01-30T11:04:18.383Z,94.23
2023-01-30T11:06:37.598Z,93.81
2023-01-30T11:09:07.954Z,94.65
2023-01-30T11:11:46.716Z,93.38
2023-01-30T11:14:09.272Z,93.65
2023-01-30T11:16:43.967Z,92.67
2023-01-30T11:19:19.407Z,92.89
2023-01-30T11:21:44.398Z,93.96
2023-01-30T11:24:16.247Z,94.67
2023-01-30T11:26:46.734Z,95.01
2023-01-30T11:29:23.484Z,95.36
2023-01-30T11:31:41.655Z,96.40
2023-01-30T11:34:14.221Z,95.74
2023-01-30T11:36:38.034Z,95.98
2023-01-30T11:39:19.480Z,96.58
2023-01-30T11:41:41.433Z,97.05
2023-01-30T11:44:09.192Z,97.35
2023-01-30T11:46:39.978Z,97.00
2023-01-30T11:49:45.891Z,97.71
2023-01-30T11:51:39.398Z,97.14
2023-01-30T11:54:13.846Z,96.86
2023-01-30T11:56:41.606Z,97.45
2023-01-30T11:59:23.029Z,94.97
2023-01-30T12:01:37.300Z,94.62
2023-01-30T12:04:11.213Z,94.82
2023-01-30T12:06:39.692Z,94.56
2023-01-30T12:09:26.988Z,95.11
2023-01-30T12:11:44.100Z,89.59
2023-01-30T12:14:18.505Z,89.85
2023-01-30T12:16:50.933Z,91.96
2023-01-30T12:19:24.779Z,90.65
2023-01-30T12:21:45.417Z,92.64
2023-01-30T12:24:17.909Z,90.73
2023-01-30T13:03:23.442Z,89.76
2023-01-30T13:05:40.924Z,86.87
2023-01-30T13:08:20.897Z,89.14
2023-01-30T13:10:40.313Z,87.29
2023-01-30T13:13:14.142Z,87.97
2023-01-30T13:15:39.496Z,88.11
2023-01-30T13:18:14.275Z,91.03
2023-01-30T13:20:46.670Z,87.83
2023-01-30T13:24:29.545Z,90.92
2023-01-30T13:25:40.756Z,85.75
2023-01-30T13:28:10.855Z,86.96
2023-01-30T13:30:35.076Z,86.78
2023-01-30T13:33:05.918Z,85.80
2023-01-30T13:35:40.318Z,87.93
2023-01-30T13:38:04.841Z,85.63
2023-01-30T13:40:38.646Z,86.65
2023-01-30T13:43:11.376Z,86.20
2023-01-30T13:45:36.982Z,86.21
2023-01-30T13:48:16.310Z,88.11
2023-01-30T13:50:45.413Z,87.00
2023-01-30T13:53:08.282Z,88.47
2023-01-30T13:55:42.267Z,87.06
2023-01-30T13:58:16.820Z,88.43
2023-01-30T14:00:35.093Z,87.85
2023-01-30T14:03:14.762Z,88.32
2023-01-30T14:05:53.548Z,89.06
2023-01-30T14:08:10.717Z,89.17
2023-01-30T14:10:34.189Z,88.20
2023-01-30T14:13:05.512Z,89.48
2023-01-30T14:15:35.751Z,88.55
2023-01-30T14:20:36.314Z,88.43
2023-01-30T14:25:44.843Z,89.36
2023-01-30T14:28:23.199Z,88.66
2023-01-30T14:30:35.603Z,88.96
2023-01-30T14:33:25.385Z,88.37
2023-01-30T14:35:33.476Z,86.84
2023-01-30T14:38:12.684Z,89.08
2023-01-30T14:40:37.067Z,88.28
2023-01-30T14:43:23.203Z,89.30
2023-01-30T14:45:46.487Z,87.60
2023-01-30T14:48:23.213Z,87.90
2023-01-30T14:50:33.663Z,88.78
2023-01-30T14:53:03.639Z,88.65
2023-01-30T14:55:33.704Z,87.11
2023-01-30T14:58:04.420Z,88.65
2023-01-30T15:00:37.204Z,88.55
2023-01-30T15:03:08.736Z,87.99
2023-01-30T15:05:39.998Z,88.31
2023-01-30T15:08:08.009Z,89.24
2023-01-30T15:10:49.928Z,88.73
2023-01-30T15:13:21.397Z,88.99
2023-01-30T15:15:43.068Z,88.93
2023-01-30T15:18:18.369Z,89.12
2023-01-30T15:20:43.584Z,89.58
2023-01-30T15:23:16.867Z,89.58
2023-01-30T15:25:46.768Z,89.58
2023-01-30T15:28:16.340Z,90.49
2023-01-30T15:30:48.538Z,91.43
2023-01-30T15:33:15.655Z,90.89
2023-01-30T15:35:33.725Z,92.29
2023-01-30T15:38:03.625Z,92.06
2023-01-30T15:50:33.946Z,90.98
2023-01-30T15:53:04.267Z,91.25
2023-01-30T15:55:36.501Z,91.38
2023-01-30T15:58:08.009Z,90.69
2023-01-30T16:00:36.508Z,90.57
2023-01-30T16:03:10.106Z,90.13
2023-01-30T16:08:16.633Z,90.07
2023-01-30T16:10:43.795Z,90.36
2023-01-30T16:13:03.536Z,90.88
2023-01-30T16:15:42.280Z,91.18
2023-01-30T16:18:13.407Z,91.76
2023-01-30T16:20:48.732Z,91.08
2023-01-30T16:23:03.733Z,90.95
2023-01-30T16:25:33.645Z,90.46
2023-01-30T16:28:03.611Z,90.38
2023-01-30T16:30:33.738Z,90.23
2023-01-30T16:33:06.553Z,89.73
2023-01-30T16:35:33.469Z,89.76
2023-01-30T16:38:24.857Z,89.87
2023-01-30T16:40:43.839Z,91.20
2023-01-30T16:43:17.209Z,91.75
2023-01-30T16:45:53.327Z,91.77
2023-01-30T16:48:23.550Z,91.21
2023-01-30T16:50:33.702Z,90.07
2023-01-30T16:53:03.791Z,90.42
2023-01-30T16:55:34.707Z,90.62
2023-01-30T16:58:04.393Z,90.51
2023-01-30T17:00:37.059Z,91.07
2023-01-30T17:03:06.238Z,91.83
2023-01-30T17:05:38.749Z,92.06
2023-01-30T17:08:03.592Z,92.53
2023-01-30T17:10:48.760Z,92.17
2023-01-30T17:13:04.227Z,92.29
2023-01-30T17:15:34.708Z,91.76
2023-01-30T17:18:03.879Z,91.37
2023-01-30T17:20:40.862Z,92.00
2023-01-30T17:23:08.116Z,92.16
2023-01-30T17:25:37.801Z,93.61
2023-01-30T17:28:05.739Z,94.32
2023-01-30T17:30:33.701Z,95.13
2023-01-30T17:33:03.555Z,95.99
2023-01-30T17:38:06.136Z,95.91
2023-01-30T17:40:37.048Z,95.53
2023-01-30T17:43:03.767Z,95.03
2023-01-30T17:45:34.569Z,93.67
2023-01-30T17:48:04.177Z,93.21
2023-01-30T17:53:03.899Z,93.62
2023-01-30T17:55:34.714Z,94.95
2023-01-30T17:58:04.640Z,96.15
2023-01-30T18:00:33.502Z,95.39
2023-01-30T18:03:03.890Z,94.54
2023-01-30T18:05:35.298Z,93.94
2023-01-30T18:08:03.555Z,94.18
2023-01-30T18:10:33.614Z,94.59
2023-01-30T18:13:03.463Z,94.48
2023-01-30T18:15:33.822Z,94.61
2023-01-30T18:18:03.824Z,95.63
2023-01-30T18:20:33.488Z,96.08
2023-01-30T18:23:03.810Z,96.35
2023-01-30T18:25:33.496Z,95.45
2023-01-30T18:28:06.529Z,96.27
2023-01-30T18:30:33.642Z,96.73
2023-01-30T18:33:03.520Z,96.24
2023-01-30T18:35:33.505Z,97.73
2023-01-30T18:38:03.630Z,97.90
2023-01-30T18:40:34.559Z,97.39
2023-01-30T18:43:03.590Z,98.02
2023-01-30T18:45:34.018Z,98.25
2023-01-30T18:48:03.877Z,98.05
2023-01-30T18:50:33.538Z,99.25
2023-01-30T18:55:35.080Z,98.53
2023-01-30T18:58:03.528Z,98.83
2023-01-30T19:00:33.523Z,97.81
2023-01-30T19:03:03.539Z,97.54
2023-01-30T19:08:04.358Z,96.83
2023-01-30T19:10:33.996Z,97.28
2023-01-30T19:13:13.657Z,97.89
2023-01-30T19:15:35.007Z,98.38
2023-01-30T19:18:03.864Z,98.58
2023-01-30T19:20:33.777Z,98.30
2023-01-30T19:23:03.549Z,98.35
2023-01-30T19:25:35.836Z,98.89
2023-01-30T19:28:05.523Z,99.11
2023-01-30T19:30:35.584Z,98.61
2023-01-30T19:33:03.691Z,97.99
2023-01-30T19:35:33.644Z,97.65
2023-01-30T19:38:03.913Z,97.89
2023-01-30T19:40:33.678Z,97.88
2023-01-30T19:43:10.838Z,97.27
2023-01-30T19:45:34.025Z,97.29
2023-01-30T19:48:04.799Z,97.36
2023-01-30T19:50:34.361Z,96.93
2023-01-30T19:53:04.008Z,97.18
2023-01-30T19:55:33.861Z,98.16
2023-01-30T19:58:03.997Z,98.30
2023-01-30T20:00:33.520Z,98.54
2023-01-30T20:03:03.626Z,99.24
2023-01-30T20:05:35.326Z,99.29
2023-01-30T20:08:03.899Z,99.80
2023-01-30T20:10:33.897Z,98.44
2023-01-30T20:13:04.126Z,99.00
2023-01-30T20:15:33.515Z,98.67
2023-01-30T20:18:04.117Z,97.81
2023-01-30T20:20:33.533Z,96.55
2023-01-30T20:23:03.746Z,96.16
2023-01-30T20:25:36.199Z,96.60
2023-01-30T20:28:03.639Z,96.27
2023-01-30T20:30:33.701Z,97.14
2023-01-30T20:33:03.556Z,96.17
2023-01-30T20:35:34.744Z,96.80
2023-01-30T20:38:03.905Z,96.75
2023-01-30T20:40:33.823Z,97.19
2023-01-30T20:43:03.909Z,97.34
2023-01-30T20:45:33.530Z,97.89
2023-01-30T20:48:03.693Z,96.95
2023-01-30T20:50:33.555Z,97.36
2023-01-30T20:53:04.085Z,97.79
2023-01-30T20:58:03.909Z,97.07
2023-01-30T21:00:33.756Z,97.80
2023-01-30T21:03:04.186Z,97.57
2023-01-30T21:05:33.723Z,97.84
2023-01-30T21:08:04.826Z,98.45
2023-01-30T21:10:34.046Z,98.09
2023-01-30T21:13:03.559Z,97.38
2023-01-30T21:15:33.576Z,97.72
2023-01-30T21:18:04.112Z,97.39
2023-01-30T21:20:34.684Z,98.27
2023-01-30T21:23:04.322Z,98.27
2023-01-30T21:25:35.309Z,98.46
2023-01-30T21:28:03.570Z,99.28
2023-01-30T21:30:34.600Z,98.37
2023-01-30T21:33:03.991Z,99.71
2023-01-30T21:35:33.611Z,98.87
2023-01-30T21:38:13.583Z,100.00
2023-01-30T21:40:43.423Z,98.73
2023-01-30T21:43:13.718Z,98.97
2023-01-30T21:45:33.931Z,98.32
2023-01-30T21:48:04.132Z,98.66
2023-01-30T21:50:33.559Z,99.63
2023-01-30T21:53:03.646Z,100.00
2023-01-30T21:55:34.088Z,100.00
2023-01-30T22:00:35.049Z,100.00
2023-01-30T22:03:03.771Z,100.00
2023-01-30T22:05:35.279Z,100.00
2023-01-30T22:08:04.324Z,99.81
2023-01-30T22:10:33.642Z,98.52
2023-01-30T22:13:03.766Z,98.73
2023-01-30T22:15:33.633Z,98.32
2023-01-30T22:18:03.653Z,98.50
2023-01-30T22:20:33.643Z,99.20
2023-01-30T22:23:03.561Z,98.96
2023-01-30T22:25:33.775Z,98.04
2023-01-30T22:28:04.225Z,98.24
2023-01-30T22:30:33.747Z,97.62
2023-01-30T22:33:03.876Z,97.80
2023-01-30T22:35:33.590Z,98.46
2023-01-30T22:38:03.675Z,97.63
2023-01-30T22:40:33.758Z,97.46
2023-01-30T22:43:03.569Z,97.81
2023-01-30T22:45:33.913Z,97.54
2023-01-30T22:48:03.706Z,97.38
2023-01-30T22:50:33.971Z,97.31
2023-01-30T22:53:03.907Z,96.80
2023-01-30T22:55:34.881Z,96.79
2023-01-30T22:58:03.602Z,96.86
2023-01-30T23:03:04.093Z,96.27
2023-01-30T23:05:33.753Z,96.19
2023-01-30T23:08:03.931Z,96.53
2023-01-30T23:10:37.221Z,95.85
2023-01-30T23:13:06.875Z,95.67
2023-01-30T23:15:36.843Z,95.56
2023-01-30T23:18:13.691Z,95.39
2023-01-30T23:20:33.600Z,95.23
2023-01-30T23:23:05.916Z,95.38
2023-01-30T23:25:38.265Z,95.12
2023-01-30T23:28:03.948Z,94.93
2023-01-30T23:33:04.541Z,94.72
2023-01-30T23:35:35.454Z,94.94
2023-01-30T23:38:13.656Z,94.78
2023-01-30T23:40:33.607Z,95.11
2023-01-30T23:43:03.587Z,95.00
2023-01-30T23:45:34.018Z,95.11
2023-01-30T23:48:03.810Z,94.85
2023-01-30T23:50:35.267Z,94.66
2023-01-30T23:53:04.361Z,94.62
2023-01-30T23:58:03.685Z,94.66
